createdAt,value
2016-12-25T00:00:41.274Z,91.24
2016-12-25T00:01:40.946Z,91.19
2016-12-25T00:02:41.269Z,91.33
2016-12-25T00:03:41.265Z,91.61
2016-12-25T00:04:41.264Z,91.42
2016-12-25T00:05:41.289Z,91.24
2016-12-25T00:06:40.925Z,91.19
2016-12-25T00:07:41.248Z,91.33
2016-12-25T00:08:41.244Z,91.61
2016-12-25T00:09:40.920Z,91.61
2016-12-25T00:10:41.240Z,91.42
2016-12-25T00:11:40.908Z,91.52
2016-12-25T00:12:41.232Z,91.52
2016-12-25T00:13:41.234Z,91.61
2016-12-25T00:14:40.900Z,91.61
2016-12-25T00:15:41.223Z,91.38
2016-12-25T00:16:40.887Z,91.47
2016-12-25T00:17:41.212Z,91.75
2016-12-25T00:18:40.883Z,91.75
2016-12-25T00:19:41.207Z,91.94
2016-12-25T00:20:41.203Z,91.38
2016-12-25T00:21:40.871Z,91.47
2016-12-25T00:22:41.195Z,91.47
2016-12-25T00:23:41.191Z,92.04
2016-12-25T00:24:41.007Z,91.85
2016-12-25T00:25:41.182Z,91.94
2016-12-25T00:26:40.854Z,92.04
2016-12-25T00:27:41.170Z,91.85
2016-12-25T00:28:40.854Z,91.38
2016-12-25T00:29:41.162Z,91.75
2016-12-25T00:30:41.162Z,92.14
2016-12-25T00:31:40.834Z,91.94
2016-12-25T00:32:41.153Z,91.85
2016-12-25T00:33:41.157Z,91.85
2016-12-25T00:34:41.074Z,92.33
2016-12-25T00:35:41.146Z,92.04
2016-12-25T00:36:40.814Z,92.14
2016-12-25T00:37:41.142Z,91.75
2016-12-25T00:38:41.138Z,92.85
2016-12-25T00:39:41.126Z,91.85
2016-12-25T00:40:41.130Z,92.71
2016-12-25T00:41:41.126Z,92.75
2016-12-25T00:42:41.118Z,92.18
2016-12-25T00:43:40.787Z,92.8
2016-12-25T00:44:41.110Z,92.33
2016-12-25T00:45:41.106Z,92.42
2016-12-25T00:46:41.103Z,92.9
2016-12-25T00:47:41.107Z,92.33
2016-12-25T00:48:40.770Z,92.52
2016-12-25T00:49:41.099Z,92.33
2016-12-25T00:50:41.087Z,92.8
2016-12-25T00:51:41.091Z,92.42
2016-12-25T00:52:41.083Z,92.9
2016-12-25T00:53:40.747Z,92.33
2016-12-25T00:54:41.079Z,92.23
2016-12-25T00:55:40.743Z,92.33
2016-12-25T00:56:40.739Z,92.71
2016-12-25T00:57:41.063Z,92.14
2016-12-25T00:58:40.735Z,92.33
2016-12-25T00:59:41.064Z,92.9
2016-12-25T01:00:40.725Z,92.8
2016-12-25T01:01:41.052Z,92.8
2016-12-25T01:02:40.723Z,93.08
2016-12-25T01:03:41.044Z,92.42
2016-12-25T01:04:41.044Z,92.42
2016-12-25T01:05:41.036Z,92.99
2016-12-25T01:06:41.032Z,92.71
2016-12-25T01:07:40.700Z,92.71
2016-12-25T01:08:41.032Z,92.8
2016-12-25T01:09:41.025Z,93.08
2016-12-25T01:10:41.020Z,92.71
2016-12-25T01:11:40.688Z,93.08
2016-12-25T01:12:41.013Z,93.08
2016-12-25T01:13:41.005Z,93.27
2016-12-25T01:14:40.676Z,93.18
2016-12-25T01:15:41.001Z,93.27
2016-12-25T01:16:40.669Z,93.18
2016-12-25T01:17:40.989Z,93.65
2016-12-25T01:18:40.993Z,93.46
2016-12-25T01:19:40.981Z,93.75
2016-12-25T01:20:40.981Z,93.84
2016-12-25T01:21:40.645Z,93.84
2016-12-25T01:22:40.977Z,93.23
2016-12-25T01:23:40.642Z,93.89
2016-12-25T01:24:40.970Z,93.8
2016-12-25T01:25:40.965Z,93.75
2016-12-25T01:26:40.957Z,93.8
2016-12-25T01:27:40.958Z,93.99
2016-12-25T01:28:40.958Z,93.8
2016-12-25T01:29:40.954Z,93.8
2016-12-25T01:30:40.950Z,93.41
2016-12-25T01:31:40.942Z,93.6
2016-12-25T01:32:40.614Z,93.8
2016-12-25T01:33:40.939Z,93.51
2016-12-25T01:34:40.602Z,93.6
2016-12-25T01:35:40.926Z,92.94
2016-12-25T01:36:40.930Z,93.04
2016-12-25T01:37:40.590Z,93.04
2016-12-25T01:38:40.918Z,93.13
2016-12-25T01:39:40.914Z,93.04
2016-12-25T01:40:40.911Z,93.04
2016-12-25T01:41:40.606Z,93.04
2016-12-25T01:42:40.906Z,93.23
2016-12-25T01:43:40.903Z,93.51
2016-12-25T01:44:40.896Z,93.7
2016-12-25T01:45:40.890Z,93.41
2016-12-25T01:46:40.887Z,93.23
2016-12-25T01:47:40.879Z,93.23
2016-12-25T01:48:40.875Z,92.66
2016-12-25T01:49:40.883Z,93.23
2016-12-25T01:50:40.547Z,92.85
2016-12-25T01:51:40.875Z,93.32
2016-12-25T01:52:40.871Z,93.41
2016-12-25T01:53:40.868Z,93.32
2016-12-25T01:54:40.868Z,93.41
2016-12-25T01:55:40.564Z,92.56
2016-12-25T01:56:40.848Z,93.04
2016-12-25T01:57:40.847Z,92.85
2016-12-25T01:58:40.840Z,92.66
2016-12-25T01:59:40.840Z,92.85
2016-12-25T02:00:40.840Z,92.99
2016-12-25T02:01:40.836Z,92.56
2016-12-25T02:02:40.828Z,92.85
2016-12-25T02:03:40.828Z,92.8
2016-12-25T02:04:40.497Z,92.42
2016-12-25T02:05:40.856Z,92.23
2016-12-25T02:06:40.496Z,92.71
2016-12-25T02:07:40.813Z,92.8
2016-12-25T02:08:40.837Z,92.23
2016-12-25T02:09:40.805Z,92.32
2016-12-25T02:10:40.801Z,92.42
2016-12-25T02:11:40.793Z,92.61
2016-12-25T02:12:40.794Z,92.66
2016-12-25T02:13:40.464Z,92.47
2016-12-25T02:14:40.789Z,92.37
2016-12-25T02:15:40.781Z,92.47
2016-12-25T02:16:40.453Z,92.61
2016-12-25T02:17:40.777Z,92.56
2016-12-25T02:18:40.445Z,92.42
2016-12-25T02:19:40.769Z,92.51
2016-12-25T02:20:40.437Z,92.47
2016-12-25T02:21:40.766Z,92.42
2016-12-25T02:22:40.758Z,93.13
2016-12-25T02:23:40.430Z,92.37
2016-12-25T02:24:40.750Z,92.42
2016-12-25T02:25:40.750Z,92.37
2016-12-25T02:26:40.746Z,92.66
2016-12-25T02:27:40.415Z,92.94
2016-12-25T02:28:40.730Z,92.18
2016-12-25T02:29:40.402Z,92.47
2016-12-25T02:30:40.403Z,92.18
2016-12-25T02:31:40.727Z,92.37
2016-12-25T02:32:40.734Z,92.47
2016-12-25T02:33:40.723Z,92.47
2016-12-25T02:34:40.387Z,92.37
2016-12-25T02:35:40.707Z,92.18
2016-12-25T02:36:40.383Z,92.66
2016-12-25T02:37:40.703Z,93.13
2016-12-25T02:38:40.707Z,92.47
2016-12-25T02:39:40.703Z,92.37
2016-12-25T02:40:40.691Z,92.75
2016-12-25T02:41:40.355Z,92.28
2016-12-25T02:42:40.684Z,92.28
2016-12-25T02:43:40.355Z,92.47
2016-12-25T02:44:40.687Z,92.56
2016-12-25T02:45:40.347Z,92.66
2016-12-25T02:46:40.667Z,92.75
2016-12-25T02:47:40.671Z,92.94
2016-12-25T02:48:40.347Z,92.66
2016-12-25T02:49:40.655Z,92.47
2016-12-25T02:50:40.327Z,93.04
2016-12-25T02:51:40.655Z,92.94
2016-12-25T02:52:40.647Z,92.28
2016-12-25T02:53:40.314Z,92.94
2016-12-25T02:54:40.636Z,92.85
2016-12-25T02:55:40.631Z,92.66
2016-12-25T02:56:40.631Z,92.75
2016-12-25T02:57:40.299Z,92.85
2016-12-25T02:58:40.627Z,92.75
2016-12-25T02:59:40.623Z,92.75
2016-12-25T03:00:40.292Z,92.85
2016-12-25T03:01:40.296Z,92.75
2016-12-25T03:02:40.283Z,92.75
2016-12-25T03:03:40.609Z,93.32
2016-12-25T03:04:40.271Z,93.41
2016-12-25T03:05:40.612Z,93.04
2016-12-25T03:06:40.628Z,93.32
2016-12-25T03:07:40.264Z,93.27
2016-12-25T03:08:40.592Z,93.56
2016-12-25T03:09:40.583Z,93.94
2016-12-25T03:10:40.584Z,93.18
2016-12-25T03:11:40.248Z,93.94
2016-12-25T03:12:40.576Z,93.27
2016-12-25T03:13:40.576Z,93.56
2016-12-25T03:14:40.240Z,93.6
2016-12-25T03:15:40.567Z,93.56
2016-12-25T03:16:40.236Z,93.65
2016-12-25T03:17:40.553Z,93.56
2016-12-25T03:18:40.553Z,93.84
2016-12-25T03:19:40.545Z,93.75
2016-12-25T03:20:40.213Z,93.94
2016-12-25T03:21:40.545Z,93.94
2016-12-25T03:22:40.573Z,94.32
2016-12-25T03:23:40.541Z,93.56
2016-12-25T03:24:40.530Z,94.37
2016-12-25T03:25:40.197Z,93.99
2016-12-25T03:26:40.525Z,93.56
2016-12-25T03:27:40.190Z,94.37
2016-12-25T03:28:40.517Z,94.42
2016-12-25T03:29:40.662Z,94.42
2016-12-25T03:30:40.509Z,94.37
2016-12-25T03:31:40.506Z,94.32
2016-12-25T03:32:40.501Z,93.7
2016-12-25T03:33:40.498Z,94.32
2016-12-25T03:34:40.490Z,94.13
2016-12-25T03:35:40.498Z,94.13
2016-12-25T03:36:40.162Z,93.75
2016-12-25T03:37:40.482Z,94.23
2016-12-25T03:38:40.486Z,94.23
2016-12-25T03:39:40.482Z,94.51
2016-12-25T03:40:40.479Z,94.42
2016-12-25T03:41:40.474Z,94.32
2016-12-25T03:42:40.467Z,94.6
2016-12-25T03:43:40.462Z,94.42
2016-12-25T03:44:40.463Z,94.23
2016-12-25T03:45:40.131Z,94.42
2016-12-25T03:46:40.447Z,94.32
2016-12-25T03:47:40.123Z,94.23
2016-12-25T03:48:40.439Z,94.7
2016-12-25T03:49:40.435Z,94.03
2016-12-25T03:50:40.439Z,94.42
2016-12-25T03:51:40.103Z,95.07
2016-12-25T03:52:40.435Z,94.79
2016-12-25T03:53:40.431Z,94.89
2016-12-25T03:54:40.424Z,94.79
2016-12-25T03:55:40.423Z,94.79
2016-12-25T03:56:40.439Z,94.6
2016-12-25T03:57:40.412Z,94.79
2016-12-25T03:58:40.400Z,94.79
2016-12-25T03:59:40.404Z,94.98
2016-12-25T04:00:40.076Z,94.98
2016-12-25T04:01:40.396Z,94.42
2016-12-25T04:02:40.392Z,94.6
2016-12-25T04:03:40.388Z,94.7
2016-12-25T04:04:40.408Z,95.07
2016-12-25T04:05:40.384Z,94.89
2016-12-25T04:06:40.376Z,94.79
2016-12-25T04:07:40.375Z,94.89
2016-12-25T04:08:40.040Z,94.89
2016-12-25T04:09:40.519Z,94.98
2016-12-25T04:10:40.036Z,95.07
2016-12-25T04:11:40.359Z,94.79
2016-12-25T04:12:40.028Z,94.98
2016-12-25T04:13:40.347Z,95.07
2016-12-25T04:14:40.347Z,94.98
2016-12-25T04:15:40.347Z,95.07
2016-12-25T04:16:40.343Z,95.07
2016-12-25T04:17:40.335Z,94.6
2016-12-25T04:18:40.334Z,94.89
2016-12-25T04:19:40.331Z,94.7
2016-12-25T04:20:39.999Z,95.74
2016-12-25T04:21:40.323Z,94.7
2016-12-25T04:22:40.315Z,95.84
2016-12-25T04:23:39.987Z,94.42
2016-12-25T04:24:40.311Z,95.84
2016-12-25T04:25:40.304Z,95.46
2016-12-25T04:26:40.311Z,95.36
2016-12-25T04:27:40.311Z,95.65
2016-12-25T04:28:40.299Z,96.31
2016-12-25T04:29:40.291Z,96.12
2016-12-25T04:30:40.291Z,96.22
2016-12-25T04:31:40.279Z,96.03
2016-12-25T04:32:40.284Z,95.27
2016-12-25T04:33:40.279Z,96.03
2016-12-25T04:34:40.276Z,95.27
2016-12-25T04:35:40.268Z,96.03
2016-12-25T04:36:40.268Z,96.03
2016-12-25T04:37:40.256Z,96.12
2016-12-25T04:38:40.260Z,96.12
2016-12-25T04:39:40.256Z,95.36
2016-12-25T04:40:40.248Z,96.03
2016-12-25T04:41:40.248Z,96.12
2016-12-25T04:42:40.240Z,96.12
2016-12-25T04:43:40.240Z,95.93
2016-12-25T04:44:40.233Z,95.74
2016-12-25T04:45:40.233Z,94.89
2016-12-25T04:46:40.225Z,96.22
2016-12-25T04:47:40.224Z,96.12
2016-12-25T04:48:40.221Z,94.89
2016-12-25T04:49:40.225Z,95.17
2016-12-25T04:50:40.213Z,96.41
2016-12-25T04:51:39.885Z,96.41
2016-12-25T04:52:40.197Z,95.84
2016-12-25T04:53:39.881Z,96.22
2016-12-25T04:54:40.197Z,95.17
2016-12-25T04:55:40.201Z,96.12
2016-12-25T04:56:40.193Z,95.07
2016-12-25T04:57:39.865Z,95.17
2016-12-25T04:58:40.185Z,95.17
2016-12-25T04:59:40.181Z,96.12
2016-12-25T05:00:40.182Z,96.03
2016-12-25T05:01:40.174Z,96.12
2016-12-25T05:02:40.169Z,95.93
2016-12-25T05:03:40.170Z,95.17
2016-12-25T05:04:40.166Z,96.22
2016-12-25T05:05:40.157Z,96.03
2016-12-25T05:06:40.150Z,95.84
2016-12-25T05:07:40.154Z,96.22
2016-12-25T05:08:40.142Z,95.07
2016-12-25T05:09:40.150Z,95.74
2016-12-25T05:10:39.810Z,95.93
2016-12-25T05:11:40.138Z,96.03
2016-12-25T05:12:40.136Z,96.03
2016-12-25T05:13:40.127Z,96.12
2016-12-25T05:14:40.127Z,95.51
2016-12-25T05:15:40.123Z,95.17
2016-12-25T05:16:40.114Z,95.17
2016-12-25T05:17:40.115Z,94.98
2016-12-25T05:18:40.107Z,94.98
2016-12-25T05:19:40.103Z,95.74
2016-12-25T05:20:39.771Z,94.7
2016-12-25T05:21:40.103Z,95.6
2016-12-25T05:22:39.775Z,95.55
2016-12-25T05:23:39.795Z,94.37
2016-12-25T05:24:40.087Z,95.98
2016-12-25T05:25:40.083Z,95.41
2016-12-25T05:26:40.079Z,95.79
2016-12-25T05:27:40.079Z,94.89
2016-12-25T05:28:40.072Z,94.93
2016-12-25T05:29:39.739Z,95.03
2016-12-25T05:30:40.067Z,94.84
2016-12-25T05:31:40.060Z,95.31
2016-12-25T05:32:40.052Z,94.93
2016-12-25T05:33:39.720Z,94.93
2016-12-25T05:34:40.052Z,94.65
2016-12-25T05:35:39.720Z,94.84
2016-12-25T05:36:40.048Z,94.93
2016-12-25T05:37:39.712Z,95.17
2016-12-25T05:38:40.040Z,95.07
2016-12-25T05:39:39.704Z,94.65
2016-12-25T05:40:40.028Z,94.27
2016-12-25T05:41:39.697Z,94.46
2016-12-25T05:42:40.024Z,94.56
2016-12-25T05:43:40.020Z,94.27
2016-12-25T05:44:40.016Z,94.18
2016-12-25T05:45:40.013Z,94.18
2016-12-25T05:46:39.672Z,94.46
2016-12-25T05:47:40.005Z,93.89
2016-12-25T05:48:39.669Z,94.08
2016-12-25T05:49:39.989Z,93.7
2016-12-25T05:50:39.664Z,93.99
2016-12-25T05:51:39.985Z,93.7
2016-12-25T05:52:39.985Z,93.6
2016-12-25T05:53:39.978Z,93.04
2016-12-25T05:54:39.649Z,93.99
2016-12-25T05:55:39.969Z,93.8
2016-12-25T05:56:39.969Z,93.89
2016-12-25T05:57:39.961Z,93.89
2016-12-25T05:58:39.965Z,93.41
2016-12-25T05:59:39.957Z,93.51
2016-12-25T06:00:39.954Z,93.04
2016-12-25T06:01:39.621Z,93.7
2016-12-25T06:02:39.949Z,93.41
2016-12-25T06:03:39.617Z,93.41
2016-12-25T06:04:39.941Z,93.04
2016-12-25T06:05:39.933Z,93.13
2016-12-25T06:06:39.930Z,93.23
2016-12-25T06:07:39.930Z,93.32
2016-12-25T06:08:39.918Z,93.23
2016-12-25T06:09:39.918Z,93.32
2016-12-25T06:10:39.585Z,92.37
2016-12-25T06:11:39.910Z,92.94
2016-12-25T06:12:39.901Z,92.85
2016-12-25T06:13:39.910Z,92.66
2016-12-25T06:14:39.898Z,92.56
2016-12-25T06:15:39.898Z,92.94
2016-12-25T06:16:39.890Z,92.56
2016-12-25T06:17:39.558Z,92.94
2016-12-25T06:18:39.886Z,92.85
2016-12-25T06:19:39.878Z,92.66
2016-12-25T06:20:39.878Z,93.13
2016-12-25T06:21:39.550Z,92.94
2016-12-25T06:22:39.874Z,92.85
2016-12-25T06:23:39.542Z,92.09
2016-12-25T06:24:39.867Z,92.94
2016-12-25T06:25:39.534Z,92.94
2016-12-25T06:26:39.854Z,93.13
2016-12-25T06:27:39.854Z,93.04
2016-12-25T06:28:39.519Z,92.75
2016-12-25T06:29:39.839Z,92.94
2016-12-25T06:30:39.511Z,92.56
2016-12-25T06:31:39.842Z,92.94
2016-12-25T06:32:39.507Z,92.47
2016-12-25T06:33:39.831Z,92.37
2016-12-25T06:34:39.822Z,92.09
2016-12-25T06:35:39.495Z,92.75
2016-12-25T06:36:39.818Z,92.56
2016-12-25T06:37:39.487Z,92.47
2016-12-25T06:38:39.807Z,92.56
2016-12-25T06:39:39.483Z,92.94
2016-12-25T06:40:39.803Z,92.66
2016-12-25T06:41:39.471Z,92.28
2016-12-25T06:42:39.795Z,92.75
2016-12-25T06:43:39.791Z,92.47
2016-12-25T06:44:39.787Z,91.99
2016-12-25T06:45:39.783Z,91.71
2016-12-25T06:46:39.451Z,91.8
2016-12-25T06:47:39.779Z,92.85
2016-12-25T06:48:39.444Z,92.18
2016-12-25T06:49:39.771Z,92.94
2016-12-25T06:50:39.763Z,91.99
2016-12-25T06:51:39.763Z,92.47
2016-12-25T06:52:39.759Z,92.18
2016-12-25T06:53:39.427Z,92.09
2016-12-25T06:54:39.743Z,92.18
2016-12-25T06:55:39.748Z,92.09
2016-12-25T06:56:39.743Z,91.89
2016-12-25T06:57:39.736Z,92.37
2016-12-25T06:58:39.735Z,92.18
2016-12-25T06:59:39.411Z,91.89
2016-12-25T07:00:39.723Z,92.37
2016-12-25T07:01:39.723Z,92.18
2016-12-25T07:02:39.391Z,92.18
2016-12-25T07:03:39.715Z,92.18
2016-12-25T07:04:39.711Z,92.18
2016-12-25T07:05:39.712Z,91.8
2016-12-25T07:06:39.388Z,92.18
2016-12-25T07:07:39.695Z,92.09
2016-12-25T07:08:39.372Z,92.18
2016-12-25T07:09:39.692Z,92.18
2016-12-25T07:10:39.687Z,92.09
2016-12-25T07:11:39.359Z,91.8
2016-12-25T07:12:39.684Z,92.56
2016-12-25T07:13:39.676Z,91.99
2016-12-25T07:14:39.668Z,91.8
2016-12-25T07:15:39.671Z,92.37
2016-12-25T07:16:39.660Z,92.37
2016-12-25T07:17:39.664Z,91.99
2016-12-25T07:18:39.324Z,91.99
2016-12-25T07:19:39.652Z,91.89
2016-12-25T07:20:39.319Z,91.89
2016-12-25T07:21:39.648Z,92.18
2016-12-25T07:22:39.316Z,92.18
2016-12-25T07:23:39.632Z,91.99
2016-12-25T07:24:39.640Z,91.14
2016-12-25T07:25:39.636Z,91.24
2016-12-25T07:26:39.300Z,91.61
2016-12-25T07:27:39.297Z,91.52
2016-12-25T07:28:39.624Z,91.89
2016-12-25T07:29:39.292Z,91.89
2016-12-25T07:30:39.617Z,91.24
2016-12-25T07:31:39.600Z,91.42
2016-12-25T07:32:39.600Z,91.99
2016-12-25T07:33:39.596Z,92.18
2016-12-25T07:34:39.596Z,92.18
2016-12-25T07:35:39.592Z,91.14
2016-12-25T07:36:39.264Z,91.52
2016-12-25T07:37:39.584Z,91.33
2016-12-25T07:38:39.253Z,91.99
2016-12-25T07:39:39.576Z,91.61
2016-12-25T07:40:39.576Z,91.42
2016-12-25T07:41:39.564Z,91.52
2016-12-25T07:42:39.564Z,91.42
2016-12-25T07:43:39.236Z,91.52
2016-12-25T07:44:39.568Z,91.33
2016-12-25T07:45:39.476Z,91.33
2016-12-25T07:46:39.556Z,91.24
2016-12-25T07:47:39.224Z,91.24
2016-12-25T07:48:39.540Z,91.14
2016-12-25T07:49:39.244Z,90.85
2016-12-25T07:50:39.537Z,90.95
2016-12-25T07:51:39.536Z,90.76
2016-12-25T07:52:39.525Z,90.57
2016-12-25T07:53:39.524Z,90.85
2016-12-25T07:54:39.516Z,91.04
2016-12-25T07:55:39.525Z,90.38
2016-12-25T07:56:39.189Z,90.85
2016-12-25T07:57:39.508Z,90.85
2016-12-25T07:58:39.208Z,91.04
2016-12-25T07:59:39.500Z,90.95
2016-12-25T08:00:39.488Z,90.57
2016-12-25T08:01:39.492Z,90.66
2016-12-25T08:02:39.493Z,90.38
2016-12-25T08:03:39.481Z,90.19
2016-12-25T08:04:39.477Z,90.09
2016-12-25T08:05:39.485Z,90.19
2016-12-25T08:06:39.484Z,89.72
2016-12-25T08:07:39.477Z,89.62
2016-12-25T08:08:39.468Z,89.62
2016-12-25T08:09:39.137Z,89.53
2016-12-25T08:10:39.464Z,89.14
2016-12-25T08:11:39.129Z,89.62
2016-12-25T08:12:39.457Z,89.24
2016-12-25T08:13:39.452Z,88.67
2016-12-25T08:14:39.449Z,88.95
2016-12-25T08:15:39.436Z,88.48
2016-12-25T08:16:39.105Z,89.14
2016-12-25T08:17:39.437Z,88.57
2016-12-25T08:18:39.096Z,88.48
2016-12-25T08:19:39.424Z,88.39
2016-12-25T08:20:39.420Z,88.67
2016-12-25T08:21:39.416Z,88.39
2016-12-25T08:22:39.088Z,88.29
2016-12-25T08:23:39.408Z,88.01
2016-12-25T08:24:39.084Z,88.29
2016-12-25T08:25:39.456Z,88.01
2016-12-25T08:26:39.076Z,88.48
2016-12-25T08:27:39.392Z,87.91
2016-12-25T08:28:39.068Z,87.72
2016-12-25T08:29:39.392Z,88.29
2016-12-25T08:30:39.376Z,88.1
2016-12-25T08:31:39.384Z,88.29
2016-12-25T08:32:39.371Z,88.1
2016-12-25T08:33:39.375Z,87.91
2016-12-25T08:34:39.367Z,88.01
2016-12-25T08:35:39.366Z,87.62
2016-12-25T08:36:39.359Z,87.91
2016-12-25T08:37:39.355Z,88.01
2016-12-25T08:38:39.351Z,88.1
2016-12-25T08:39:39.019Z,87.43
2016-12-25T08:40:39.347Z,87.53
2016-12-25T08:41:39.015Z,87.43
2016-12-25T08:42:39.015Z,87.57
2016-12-25T08:43:39.007Z,87.1
2016-12-25T08:44:39.334Z,87.95
2016-12-25T08:45:39.330Z,87.48
2016-12-25T08:46:39.327Z,86.91
2016-12-25T08:47:39.318Z,87.48
2016-12-25T08:48:39.314Z,87.29
2016-12-25T08:49:39.315Z,87.48
2016-12-25T08:50:39.315Z,87.19
2016-12-25T08:51:38.971Z,87.01
2016-12-25T08:52:39.303Z,87.1
2016-12-25T08:53:39.295Z,87.19
2016-12-25T08:54:39.291Z,87.01
2016-12-25T08:55:39.287Z,86.91
2016-12-25T08:56:38.957Z,86.91
2016-12-25T08:57:39.279Z,87.01
2016-12-25T08:58:39.279Z,87.01
2016-12-25T08:59:39.271Z,86.91
2016-12-25T09:00:39.263Z,86.82
2016-12-25T09:01:39.271Z,86.91
2016-12-25T09:02:38.940Z,87.19
2016-12-25T09:03:39.263Z,86.72
2016-12-25T09:04:38.931Z,86.53
2016-12-25T09:05:39.247Z,86.34
2016-12-25T09:06:39.248Z,86.82
2016-12-25T09:07:39.247Z,86.24
2016-12-25T09:08:38.912Z,86.24
2016-12-25T09:09:39.240Z,85.96
2016-12-25T09:10:39.228Z,86.24
2016-12-25T09:11:39.227Z,86.43
2016-12-25T09:12:39.232Z,85.77
2016-12-25T09:13:39.220Z,86.05
2016-12-25T09:14:39.224Z,86.15
2016-12-25T09:15:38.888Z,86.15
2016-12-25T09:16:39.212Z,85.77
2016-12-25T09:17:39.212Z,85.86
2016-12-25T09:18:39.212Z,85.39
2016-12-25T09:19:39.200Z,85.58
2016-12-25T09:20:39.196Z,85.58
2016-12-25T09:21:39.196Z,85.68
2016-12-25T09:22:38.864Z,85.11
2016-12-25T09:23:39.189Z,85.39
2016-12-25T09:24:38.889Z,85.2
2016-12-25T09:25:39.176Z,84.91
2016-12-25T09:26:39.172Z,84.82
2016-12-25T09:27:38.844Z,84.91
2016-12-25T09:28:39.165Z,84.86
2016-12-25T09:29:39.164Z,84.53
2016-12-25T09:30:39.168Z,84.58
2016-12-25T09:31:39.157Z,84.48
2016-12-25T09:32:38.856Z,84.39
2016-12-25T09:33:39.153Z,84.29
2016-12-25T09:34:39.297Z,84.67
2016-12-25T09:35:39.141Z,84.67
2016-12-25T09:36:39.149Z,84.48
2016-12-25T09:37:39.133Z,84.39
2016-12-25T09:38:39.133Z,84.39
2016-12-25T09:39:39.126Z,84.39
2016-12-25T09:40:39.126Z,84.2
2016-12-25T09:41:39.122Z,84.01
2016-12-25T09:42:39.118Z,83.72
2016-12-25T09:43:38.786Z,84.1
2016-12-25T09:44:39.106Z,84.39
2016-12-25T09:45:39.110Z,83.82
2016-12-25T09:46:38.778Z,83.34
2016-12-25T09:47:39.102Z,83.34
2016-12-25T09:48:39.094Z,83.39
2016-12-25T09:49:39.094Z,82.91
2016-12-25T09:50:38.758Z,83.25
2016-12-25T09:51:39.086Z,83.25
2016-12-25T09:52:39.087Z,83.39
2016-12-25T09:53:38.755Z,83.39
2016-12-25T09:54:38.755Z,82.29
2016-12-25T09:55:39.075Z,82.29
2016-12-25T09:56:39.070Z,82.53
2016-12-25T09:57:38.742Z,81.96
2016-12-25T09:58:39.067Z,82.05
2016-12-25T09:59:39.071Z,81.58
2016-12-25T10:00:39.059Z,82.34
2016-12-25T10:01:38.719Z,81.67
2016-12-25T10:02:39.038Z,81.29
2016-12-25T10:03:39.055Z,81.01
2016-12-25T10:04:39.043Z,80.53
2016-12-25T10:05:38.723Z,81.29
2016-12-25T10:06:38.707Z,80.63
2016-12-25T10:07:38.703Z,80.44
2016-12-25T10:08:39.035Z,80.44
2016-12-25T10:09:39.027Z,80.72
2016-12-25T10:10:39.027Z,80.34
2016-12-25T10:11:39.019Z,80.53
2016-12-25T10:12:38.687Z,79.77
2016-12-25T10:13:38.683Z,80.05
2016-12-25T10:14:39.011Z,79.96
2016-12-25T10:15:39.003Z,79.96
2016-12-25T10:16:38.999Z,80.15
2016-12-25T10:17:38.999Z,79.96
2016-12-25T10:18:38.663Z,79.3
2016-12-25T10:19:38.659Z,79.3
2016-12-25T10:20:38.659Z,79.01
2016-12-25T10:21:38.979Z,78.91
2016-12-25T10:22:38.975Z,78.82
2016-12-25T10:23:38.975Z,79.01
2016-12-25T10:24:38.979Z,78.72
2016-12-25T10:25:38.979Z,79.3
2016-12-25T10:26:38.963Z,78.91
2016-12-25T10:27:38.963Z,79.2
2016-12-25T10:28:38.963Z,78.63
2016-12-25T10:29:38.955Z,78.91
2016-12-25T10:30:38.631Z,78.29
2016-12-25T10:31:38.951Z,78.29
2016-12-25T10:32:38.943Z,78.44
2016-12-25T10:33:38.611Z,78.44
2016-12-25T10:34:38.610Z,78.19
2016-12-25T10:35:38.607Z,77.81
2016-12-25T10:36:38.932Z,77.62
2016-12-25T10:37:38.604Z,77.81
2016-12-25T10:38:38.599Z,77.81
2016-12-25T10:39:38.600Z,77.43
2016-12-25T10:40:38.592Z,77.53
2016-12-25T10:41:38.584Z,77.62
2016-12-25T10:42:38.916Z,76.76
2016-12-25T10:43:38.916Z,76.61
2016-12-25T10:44:38.908Z,75.95
2016-12-25T10:45:38.908Z,76.14
2016-12-25T10:46:38.904Z,75.28
2016-12-25T10:47:38.896Z,75.67
2016-12-25T10:48:38.897Z,75.47
2016-12-25T10:49:38.573Z,75.04
2016-12-25T10:50:38.892Z,74.75
2016-12-25T10:51:38.884Z,74.37
2016-12-25T10:52:38.885Z,73.32
2016-12-25T10:53:38.886Z,73.51
2016-12-25T10:54:38.881Z,72.94
2016-12-25T10:55:38.873Z,72.75
2016-12-25T10:56:38.549Z,72.27
2016-12-25T10:57:38.873Z,72.37
2016-12-25T10:58:38.869Z,72.56
2016-12-25T10:59:38.865Z,73.03
2016-12-25T11:00:38.865Z,72.85
2016-12-25T11:01:38.857Z,72.94
2016-12-25T11:02:38.857Z,72.85
2016-12-25T11:03:38.530Z,73.03
2016-12-25T11:04:38.853Z,72.46
2016-12-25T11:05:38.518Z,72.37
2016-12-25T11:06:38.846Z,72.17
2016-12-25T11:07:38.838Z,72.17
2016-12-25T11:08:38.510Z,71.8
2016-12-25T11:09:38.834Z,71.51
2016-12-25T11:10:38.834Z,71.22
2016-12-25T11:11:38.510Z,70.84
2016-12-25T11:12:38.499Z,70.75
2016-12-25T11:13:38.819Z,71.03
2016-12-25T11:14:38.819Z,71.22
2016-12-25T11:15:38.495Z,71.13
2016-12-25T11:16:38.815Z,71.51
2016-12-25T11:17:38.811Z,71.51
2016-12-25T11:18:38.484Z,71.03
2016-12-25T11:19:38.811Z,71.42
2016-12-25T11:20:38.811Z,71.03
2016-12-25T11:21:38.468Z,70.94
2016-12-25T11:22:38.799Z,70.78
2016-12-25T11:23:38.796Z,70.56
2016-12-25T11:24:38.795Z,70.78
2016-12-25T11:25:38.792Z,71.07
2016-12-25T11:26:38.460Z,70.78
2016-12-25T11:27:38.788Z,70.31
2016-12-25T11:28:38.478Z,70.02
2016-12-25T11:29:38.772Z,69.17
2016-12-25T11:30:38.776Z,68.98
2016-12-25T11:31:38.772Z,69.07
2016-12-25T11:32:38.764Z,69.07
2016-12-25T11:33:38.440Z,68.75
2016-12-25T11:34:38.765Z,68.75
2016-12-25T11:35:38.765Z,68.27
2016-12-25T11:36:38.765Z,68.75
2016-12-25T11:37:38.749Z,68.46
2016-12-25T11:38:38.757Z,68.94
2016-12-25T11:39:38.753Z,69.13
2016-12-25T11:40:38.754Z,68.94
2016-12-25T11:41:38.741Z,68.75
2016-12-25T11:42:38.412Z,68.94
2016-12-25T11:43:38.749Z,69.13
2016-12-25T11:44:38.741Z,68.65
2016-12-25T11:45:38.733Z,68.65
2016-12-25T11:46:38.733Z,68.37
2016-12-25T11:47:38.729Z,68.37
2016-12-25T11:48:38.393Z,68.46
2016-12-25T11:49:38.725Z,68.37
2016-12-25T11:50:38.397Z,68.46
2016-12-25T11:51:38.726Z,68.37
2016-12-25T11:52:38.718Z,68.65
2016-12-25T11:53:38.710Z,68.69
2016-12-25T11:54:38.385Z,68.5
2016-12-25T11:55:38.706Z,68.46
2016-12-25T11:56:38.378Z,68.69
2016-12-25T11:57:38.702Z,67.93
2016-12-25T11:58:38.366Z,68.02
2016-12-25T11:59:38.698Z,68.02
2016-12-25T12:00:38.698Z,68.02
2016-12-25T12:01:38.694Z,67.93
2016-12-25T12:02:38.682Z,68.3
2016-12-25T12:03:38.686Z,68.12
2016-12-25T12:04:38.686Z,67.64
2016-12-25T12:05:38.350Z,67.26
2016-12-25T12:06:38.678Z,67.45
2016-12-25T12:07:38.350Z,67.55
2016-12-25T12:08:38.674Z,67.45
2016-12-25T12:09:38.667Z,67.55
2016-12-25T12:10:38.338Z,67.26
2016-12-25T12:11:38.666Z,67.35
2016-12-25T12:12:38.662Z,67.35
2016-12-25T12:13:38.663Z,67.45
2016-12-25T12:14:38.651Z,67.16
2016-12-25T12:15:38.655Z,67.16
2016-12-25T12:16:38.651Z,66.59
2016-12-25T12:17:38.322Z,66.88
2016-12-25T12:18:38.639Z,66.78
2016-12-25T12:19:38.647Z,66.69
2016-12-25T12:20:38.311Z,66.4
2016-12-25T12:21:38.641Z,66.4
2016-12-25T12:22:38.639Z,66.59
2016-12-25T12:23:38.631Z,66.5
2016-12-25T12:24:38.311Z,66.88
2016-12-25T12:25:38.627Z,66.88
2016-12-25T12:26:38.627Z,66.59
2016-12-25T12:27:38.620Z,66.59
2016-12-25T12:28:38.292Z,66.31
2016-12-25T12:29:38.620Z,66.5
2016-12-25T12:30:38.616Z,66.02
2016-12-25T12:31:38.516Z,66.31
2016-12-25T12:32:38.287Z,66.11
2016-12-25T12:33:38.611Z,66.02
2016-12-25T12:34:38.604Z,66.21
2016-12-25T12:35:38.605Z,66.02
2016-12-25T12:36:38.607Z,66.31
2016-12-25T12:37:38.600Z,65.36
2016-12-25T12:38:38.615Z,64.84
2016-12-25T12:39:38.277Z,65.13
2016-12-25T12:40:38.587Z,65.32
2016-12-25T12:41:38.587Z,65.51
2016-12-25T12:42:38.255Z,65.61
2016-12-25T12:43:38.579Z,65.61
2016-12-25T12:44:38.578Z,65.42
2016-12-25T12:45:38.579Z,65.42
2016-12-25T12:46:38.574Z,65.23
2016-12-25T12:47:38.242Z,65.23
2016-12-25T12:48:38.570Z,65.36
2016-12-25T12:49:38.562Z,65.36
2016-12-25T12:50:38.230Z,65.45
2016-12-25T12:51:38.558Z,64.97
2016-12-25T12:52:38.230Z,64.87
2016-12-25T12:53:38.554Z,64.87
2016-12-25T12:54:38.550Z,64.97